Time;durP1;ratioP1;P1;durP2;ratioP2;P2;SDS_P1;SDS_P2;PMS_P1;PMS_P2;Temp;Humidity;BMP_temperature;BMP_pressure;BME280_temperature;BME280_humidity;BME280_pressure;Samples;Min_cycle;Max_cycle;Signal;HPM_P1;HPM_P2
2022/03/20 00:00:32;;;;;;;;;;;18.30;30.70;;;;;;8363203;28;19924;-47
2022/03/20 00:04:33;;;;;;;;;;;18.30;30.70;;;;;;8362969;28;19912;-48
2022/03/20 00:08:33;;;;;;;;;;;18.30;30.70;;;;;;8362353;28;19925;-49
2022/03/20 00:12:37;;;;;;;;;;;18.30;30.70;;;;;;8362971;28;19913;-47
2022/03/20 00:16:37;;;;;;;;;;;18.30;30.70;;;;;;8362645;28;19917;-48
2022/03/20 00:20:39;;;;;;;;;;;18.30;30.70;;;;;;8364860;28;19923;-50
2022/03/20 00:24:40;;;;;;;;;;;18.30;30.70;;;;;;8369582;28;19966;-50
2022/03/20 00:28:42;;;;;;;;;;;18.20;30.70;;;;;;8369122;28;20027;-48
2022/03/20 00:32:42;;;;;;;;;;;18.30;30.80;;;;;;8368844;28;19920;-47
2022/03/20 00:36:43;;;;;;;;;;;18.30;30.80;;;;;;8369143;28;20270;-47
2022/03/20 00:40:43;;;;;;;;;;;18.20;30.70;;;;;;8368787;28;20118;-47
2022/03/20 00:44:44;;;;;;;;;;;18.20;30.80;;;;;;8368203;28;20003;-46
2022/03/20 00:48:44;;;;;;;;;;;18.20;30.70;;;;;;8368513;28;19921;-46
2022/03/20 00:52:45;;;;;;;;;;;18.20;30.80;;;;;;8368666;28;20338;-47
2022/03/20 00:56:46;;;;;;;;;;;18.20;30.80;;;;;;8368120;28;19921;-48
2022/03/20 01:00:47;;;;;;;;;;;18.20;30.80;;;;;;8368122;28;19920;-47
2022/03/20 01:04:47;;;;;;;;;;;18.20;30.80;;;;;;8367981;28;19935;-47
2022/03/20 01:08:49;;;;;;;;;;;18.20;30.80;;;;;;8367432;28;20066;-47
2022/03/20 01:12:49;;;;;;;;;;;18.20;30.80;;;;;;8367909;28;19988;-51
2022/03/20 01:16:50;;;;;;;;;;;18.20;30.80;;;;;;8367656;28;19955;-47
2022/03/20 01:20:51;;;;;;;;;;;18.20;31.40;;;;;;8366948;28;19964;-48
2022/03/20 01:24:51;;;;;;;;;;;18.20;30.80;;;;;;8367262;28;19920;-45
2022/03/20 01:28:52;;;;;;;;;;;18.10;30.80;;;;;;8367315;28;20080;-46
2022/03/20 01:32:52;;;;;;;;;;;18.20;30.80;;;;;;8366418;28;20058;-46
2022/03/20 01:36:53;;;;;;;;;;;18.10;30.80;;;;;;8367130;28;19917;-46
2022/03/20 01:40:54;;;;;;;;;;;18.10;30.80;;;;;;8367022;28;19913;-47
2022/03/20 01:44:54;;;;;;;;;;;18.10;30.80;;;;;;8366228;28;20377;-48
2022/03/20 01:48:55;;;;;;;;;;;18.10;30.80;;;;;;8366919;28;20004;-50
2022/03/20 01:52:57;;;;;;;;;;;18.10;30.80;;;;;;8366902;28;19971;-48
2022/03/20 01:56:57;;;;;;;;;;;18.10;30.90;;;;;;8366168;28;19920;-48
2022/03/20 02:00:58;;;;;;;;;;;18.10;30.80;;;;;;8366413;28;20013;-48
2022/03/20 02:04:59;;;;;;;;;;;18.10;30.90;;;;;;8366076;28;19959;-47
2022/03/20 02:08:59;;;;;;;;;;;18.00;30.80;;;;;;8346380;28;19917;-48
2022/03/20 02:13:00;;;;;;;;;;;18.00;30.80;;;;;;8333381;28;20494;-48
2022/03/20 02:17:01;;;;;;;;;;;18.00;30.90;;;;;;8332910;28;19982;-49
2022/03/20 02:21:01;;;;;;;;;;;18.00;30.90;;;;;;8332151;28;19924;-47
2022/03/20 02:25:05;;;;;;;;;;;18.00;30.90;;;;;;8332444;28;19987;-46
2022/03/20 02:29:06;;;;;;;;;;;18.00;30.90;;;;;;8332084;28;19924;-47
2022/03/20 02:33:07;;;;;;;;;;;18.00;30.90;;;;;;8332895;28;20374;-47
2022/03/20 02:37:08;;;;;;;;;;;18.00;31.00;;;;;;8332479;28;20024;-48
2022/03/20 02:41:14;;;;;;;;;;;18.00;31.00;;;;;;8331652;28;19917;-47
2022/03/20 02:45:15;;;;;;;;;;;18.00;30.90;;;;;;8330953;28;20012;-47
2022/03/20 02:49:17;;;;;;;;;;;18.00;31.00;;;;;;8331830;28;19917;-49
2022/03/20 02:53:17;;;;;;;;;;;17.90;30.90;;;;;;8331463;28;19972;-46
2022/03/20 02:57:17;;;;;;;;;;;18.00;31.00;;;;;;8331815;28;19974;-46
2022/03/20 03:01:18;;;;;;;;;;;17.90;30.90;;;;;;8331373;28;20546;-46
2022/03/20 03:05:19;;;;;;;;;;;17.90;31.00;;;;;;8330855;28;19932;-46
2022/03/20 03:13:39;;;;;;;;;;;17.90;30.90;;;;;;8335200;28;19924;-47
2022/03/20 03:17:40;;;;;;;;;;;17.90;31.00;;;;;;8330555;28;19970;-47
2022/03/20 03:21:40;;;;;;;;;;;17.90;31.00;;;;;;8330855;28;19921;-48
2022/03/20 03:25:41;;;;;;;;;;;17.90;30.90;;;;;;8330603;28;20012;-47
2022/03/20 03:29:42;;;;;;;;;;;17.90;31.00;;;;;;8330280;28;19921;-48
2022/03/20 03:38:02;;;;;;;;;;;17.90;31.00;;;;;;8330563;28;19924;-47
2022/03/20 03:42:03;;;;;;;;;;;17.90;31.00;;;;;;8330440;28;19948;-46
2022/03/20 03:46:03;;;;;;;;;;;17.80;31.00;;;;;;8330052;28;19925;-48
2022/03/20 03:50:04;;;;;;;;;;;17.80;31.00;;;;;;8329767;28;19971;-48
2022/03/20 03:54:05;;;;;;;;;;;17.80;31.00;;;;;;8330090;28;20362;-47
2022/03/20 03:58:05;;;;;;;;;;;17.80;31.00;;;;;;8330433;28;19928;-47
2022/03/20 04:02:06;;;;;;;;;;;17.80;31.00;;;;;;8329641;28;19920;-47
2022/03/20 04:06:07;;;;;;;;;;;17.80;31.00;;;;;;8329851;28;20016;-50
2022/03/20 04:10:08;;;;;;;;;;;17.80;31.00;;;;;;8330031;28;20004;-48
2022/03/20 04:14:08;;;;;;;;;;;17.80;31.10;;;;;;8329679;28;19924;-47
2022/03/20 04:18:09;;;;;;;;;;;17.80;31.10;;;;;;8329674;28;19917;-48
2022/03/20 04:22:09;;;;;;;;;;;17.70;31.00;;;;;;8329704;28;19928;-49
2022/03/20 04:26:10;;;;;;;;;;;17.70;31.00;;;;;;8329080;28;19929;-49
2022/03/20 04:30:11;;;;;;;;;;;17.70;31.10;;;;;;8329663;28;19951;-48
2022/03/20 04:34:12;;;;;;;;;;;17.80;31.10;;;;;;8329751;28;19968;-47
2022/03/20 04:38:13;;;;;;;;;;;17.70;31.10;;;;;;8329004;28;19971;-50
2022/03/20 04:42:13;;;;;;;;;;;17.70;31.10;;;;;;8329393;28;20004;-48
2022/03/20 04:46:14;;;;;;;;;;;17.70;31.10;;;;;;8329534;28;19932;-50
2022/03/20 04:58:53;;;;;;;;;;;17.70;31.10;;;;;;8329360;28;19940;-52
2022/03/20 05:02:53;;;;;;;;;;;17.70;31.20;;;;;;8328549;28;19921;-47
2022/03/20 05:06:54;;;;;;;;;;;17.70;31.10;;;;;;8347145;28;20027;-49
2022/03/20 05:15:14;;;;;;;;;;;17.70;31.10;;;;;;8367494;28;19919;-47
2022/03/20 05:19:15;;;;;;;;;;;17.70;31.10;;;;;;8368160;28;20003;-49
2022/03/20 05:23:15;;;;;;;;;;;17.70;31.10;;;;;;8367036;28;19924;-48
2022/03/20 05:27:16;;;;;;;;;;;17.70;31.20;;;;;;8367591;28;19956;-49
2022/03/20 05:31:16;;;;;;;;;;;17.70;31.20;;;;;;8367337;28;20310;-50
2022/03/20 05:35:17;;;;;;;;;;;17.70;31.10;;;;;;8366532;28;20000;-50
2022/03/20 05:39:18;;;;;;;;;;;17.70;31.20;;;;;;8367277;28;19916;-51
2022/03/20 05:43:18;;;;;;;;;;;17.70;31.20;;;;;;8367158;28;19917;-48
2022/03/20 05:47:19;;;;;;;;;;;17.70;31.20;;;;;;8366235;28;20004;-47
2022/03/20 05:51:19;;;;;;;;;;;17.70;31.20;;;;;;8366942;28;19916;-47
2022/03/20 05:58:01;;;;;;;;;;;17.70;31.20;;;;;;8366804;28;20357;-46
2022/03/20 05:59:42;;;;;;;;;;;17.70;31.20;;;;;;8365439;28;21282;-48
2022/03/20 06:03:42;;;;;;;;;;;17.70;31.40;;;;;;8366581;28;19917;-47
2022/03/20 06:07:44;;;;;;;;;;;17.70;31.20;;;;;;8365950;28;19921;-47
2022/03/20 06:11:45;;;;;;;;;;;17.70;31.20;;;;;;8365557;28;19924;-49
2022/03/20 06:15:47;;;;;;;;;;;17.60;31.20;;;;;;8366054;28;20557;-48
2022/03/20 06:19:49;;;;;;;;;;;17.70;31.30;;;;;;8366126;28;20009;-47
2022/03/20 06:23:50;;;;;;;;;;;17.70;31.20;;;;;;8365293;28;20380;-47
2022/03/20 06:27:51;;;;;;;;;;;17.70;31.20;;;;;;8365419;28;19925;-48
2022/03/20 06:31:53;;;;;;;;;;;17.70;31.20;;;;;;8365258;28;20341;-47
2022/03/20 06:35:54;;;;;;;;;;;17.70;31.20;;;;;;8364667;28;20337;-49
2022/03/20 06:39:54;;;;;;;;;;;17.70;31.20;;;;;;8365343;28;19913;-48
2022/03/20 06:43:55;;;;;;;;;;;17.70;31.20;;;;;;8365018;28;19916;-48
2022/03/20 06:47:56;;;;;;;;;;;17.70;31.10;;;;;;8364215;28;20010;-47
2022/03/20 06:51:56;;;;;;;;;;;17.70;31.00;;;;;;8364904;28;20357;-48
2022/03/20 06:55:57;;;;;;;;;;;17.70;31.10;;;;;;8364923;28;20035;-48
2022/03/20 07:00:01;;;;;;;;;;;17.70;31.00;;;;;;8364282;28;19921;-47
2022/03/20 07:04:02;;;;;;;;;;;17.70;31.10;;;;;;8364144;28;20331;-47
2022/03/20 07:08:04;;;;;;;;;;;17.70;31.10;;;;;;8363637;28;19920;-48
2022/03/20 07:12:05;;;;;;;;;;;17.80;31.10;;;;;;8363946;28;20381;-47
2022/03/20 07:16:05;;;;;;;;;;;17.80;31.10;;;;;;8363775;28;19959;-49
2022/03/20 07:20:12;;;;;;;;;;;17.80;31.20;;;;;;8363586;28;19924;-48
2022/03/20 07:24:12;;;;;;;;;;;17.80;31.20;;;;;;8363831;28;19917;-48
2022/03/20 07:32:32;;;;;;;;;;;17.80;31.10;;;;;;8364425;28;20061;-47
2022/03/20 07:36:32;;;;;;;;;;;17.80;31.10;;;;;;8363357;28;19913;-51
2022/03/20 07:40:33;;;;;;;;;;;17.80;31.10;;;;;;8363645;28;20021;-48
2022/03/20 07:44:33;;;;;;;;;;;17.80;31.10;;;;;;8362599;28;19917;-48
2022/03/20 07:48:34;;;;;;;;;;;17.80;31.10;;;;;;8363407;28;20047;-49
2022/03/20 07:52:35;;;;;;;;;;;17.80;31.10;;;;;;8363269;28;19913;-46
2022/03/20 07:56:35;;;;;;;;;;;17.80;31.20;;;;;;8362574;28;20400;-48
2022/03/20 08:00:38;;;;;;;;;;;17.80;31.20;;;;;;8363516;28;19916;-47
2022/03/20 08:04:40;;;;;;;;;;;17.80;31.20;;;;;;8362941;28;19921;-50
2022/03/20 08:08:42;;;;;;;;;;;17.80;31.30;;;;;;8345897;28;20439;-49
2022/03/20 08:12:42;;;;;;;;;;;17.80;31.30;;;;;;8330021;28;19917;-49
2022/03/20 08:16:42;;;;;;;;;;;17.80;31.20;;;;;;8329863;28;19921;-47
2022/03/20 08:20:44;;;;;;;;;;;17.80;31.20;;;;;;8329379;28;19920;-49
2022/03/20 08:24:47;;;;;;;;;;;17.80;31.20;;;;;;8329842;28;19917;-48
2022/03/20 08:28:47;;;;;;;;;;;17.80;31.20;;;;;;8329801;28;19964;-48
2022/03/20 08:32:48;;;;;;;;;;;17.80;31.20;;;;;;8329072;28;19917;-49
2022/03/20 08:36:48;;;;;;;;;;;17.80;31.20;;;;;;8329619;28;19917;-48
2022/03/20 08:40:49;;;;;;;;;;;17.80;31.30;;;;;;8330794;28;19913;-48
2022/03/20 08:44:52;;;;;;;;;;;17.80;31.20;;;;;;8335275;28;19917;-48
2022/03/20 08:48:52;;;;;;;;;;;17.80;31.10;;;;;;8335566;28;19932;-46
2022/03/20 08:52:53;;;;;;;;;;;17.90;31.20;;;;;;8335315;28;19917;-47
2022/03/20 08:56:54;;;;;;;;;;;17.90;31.20;;;;;;8335141;28;19921;-47
2022/03/20 09:00:57;;;;;;;;;;;17.90;31.20;;;;;;8335315;28;19921;-48
2022/03/20 09:04:57;;;;;;;;;;;17.90;31.20;;;;;;8335105;28;20409;-46
2022/03/20 09:08:58;;;;;;;;;;;17.90;31.10;;;;;;8334351;28;19929;-48
2022/03/20 09:13:00;;;;;;;;;;;17.90;31.10;;;;;;8335008;28;19990;-48
2022/03/20 09:21:19;;;;;;;;;;;18.00;31.30;;;;;;8334502;28;20004;-50
2022/03/20 09:25:20;;;;;;;;;;;18.00;31.10;;;;;;8334208;28;20374;-50
2022/03/20 09:29:21;;;;;;;;;;;18.00;31.10;;;;;;8334250;28;19917;-52
2022/03/20 09:33:25;;;;;;;;;;;18.00;31.10;;;;;;8334363;28;19921;-49
2022/03/20 09:37:26;;;;;;;;;;;18.00;31.10;;;;;;8334109;28;19921;-48
2022/03/20 09:41:31;;;;;;;;;;;18.00;31.10;;;;;;8333620;28;20424;-48
2022/03/20 09:45:31;;;;;;;;;;;18.00;31.10;;;;;;8333861;28;19925;-48
2022/03/20 09:49:32;;;;;;;;;;;18.10;31.10;;;;;;8333625;28;19956;-48
2022/03/20 09:53:32;;;;;;;;;;;18.00;31.10;;;;;;8332789;28;20003;-49
2022/03/20 09:57:33;;;;;;;;;;;18.10;31.10;;;;;;8333822;28;20381;-49
2022/03/20 10:01:33;;;;;;;;;;;18.10;31.10;;;;;;8333597;28;20336;-47
2022/03/20 10:05:34;;;;;;;;;;;18.10;31.10;;;;;;8332521;28;20396;-49
2022/03/20 10:09:34;;;;;;;;;;;18.10;31.10;;;;;;8332986;28;20004;-47
2022/03/20 10:13:35;;;;;;;;;;;18.10;31.10;;;;;;8332198;28;19964;-47
2022/03/20 10:17:36;;;;;;;;;;;18.20;31.00;;;;;;8332138;28;19921;-49
2022/03/20 10:21:41;;;;;;;;;;;17.90;29.90;;;;;;8332904;28;19959;-47
2022/03/20 10:25:49;;;;;;;;;;;17.90;30.00;;;;;;8332555;28;19936;-47
2022/03/20 10:29:51;;;;;;;;;;;17.80;30.50;;;;;;8313968;28;19917;-46
2022/03/20 10:34:04;;;;;;;;;;;17.90;31.10;;;;;;8332295;28;20012;-48
2022/03/20 10:38:05;;;;;;;;;;;18.00;31.00;;;;;;8331733;28;19917;-49
2022/03/20 10:42:09;;;;;;;;;;;18.00;30.90;;;;;;8332313;28;19913;-49
2022/03/20 10:46:16;;;;;;;;;;;18.10;30.90;;;;;;8332074;28;19925;-50
2022/03/20 10:50:16;;;;;;;;;;;18.10;30.80;;;;;;8331256;28;19924;-48
2022/03/20 10:54:21;;;;;;;;;;;18.20;30.90;;;;;;8331902;28;19917;-51
2022/03/20 10:58:26;;;;;;;;;;;18.20;30.90;;;;;;8331556;28;19921;-47
2022/03/20 11:02:26;;;;;;;;;;;18.20;30.80;;;;;;8330644;28;19913;-50
2022/03/20 11:06:27;;;;;;;;;;;18.20;30.80;;;;;;8329943;28;19929;-48
2022/03/20 11:10:27;;;;;;;;;;;18.30;30.80;;;;;;8331371;28;20354;-50
2022/03/20 11:14:28;;;;;;;;;;;18.30;30.80;;;;;;8330700;28;19917;-48
2022/03/20 11:18:29;;;;;;;;;;;18.30;30.90;;;;;;8331039;28;19924;-50
2022/03/20 11:22:30;;;;;;;;;;;18.30;30.80;;;;;;8331007;28;20340;-49
2022/03/20 11:26:32;;;;;;;;;;;18.30;30.80;;;;;;8330364;28;20008;-47
2022/03/20 11:30:32;;;;;;;;;;;18.30;30.90;;;;;;8330654;28;19928;-49
2022/03/20 11:34:33;;;;;;;;;;;18.40;30.80;;;;;;8330791;28;19919;-46
2022/03/20 11:38:35;;;;;;;;;;;18.40;30.80;;;;;;8330087;28;19917;-47
2022/03/20 11:42:36;;;;;;;;;;;18.40;30.90;;;;;;8330822;28;19917;-46
2022/03/20 11:46:37;;;;;;;;;;;18.40;30.80;;;;;;8330469;28;20116;-49
2022/03/20 11:50:41;;;;;;;;;;;18.40;31.30;;;;;;8329661;28;20003;-48
2022/03/20 11:54:42;;;;;;;;;;;18.50;30.80;;;;;;8330110;28;19921;-47
2022/03/20 11:58:45;;;;;;;;;;;18.50;30.90;;;;;;8330130;28;19917;-47
2022/03/20 12:02:48;;;;;;;;;;;18.50;31.30;;;;;;8329650;28;20361;-50
2022/03/20 12:07:03;;;;;;;;;;;18.50;30.80;;;;;;8330289;28;19921;-49
2022/03/20 12:11:16;;;;;;;;;;;18.50;30.90;;;;;;8329418;28;19917;-48
2022/03/20 12:15:19;;;;;;;;;;;18.60;30.90;;;;;;8332168;28;20373;-50
2022/03/20 12:19:24;;;;;;;;;;;18.60;30.80;;;;;;8336393;28;19991;-49
2022/03/20 12:23:31;;;;;;;;;;;18.60;30.90;;;;;;8335890;28;19917;-49
2022/03/20 12:27:34;;;;;;;;;;;18.60;30.80;;;;;;8336297;28;20281;-47
2022/03/20 12:31:53;;;;;;;;;;;18.60;30.90;;;;;;8336042;28;20420;-48
2022/03/20 12:35:54;;;;;;;;;;;18.60;30.80;;;;;;8335366;28;19924;-47
2022/03/20 12:40:03;;;;;;;;;;;18.60;30.80;;;;;;8336011;28;19917;-47
2022/03/20 12:44:07;;;;;;;;;;;18.70;30.90;;;;;;8335374;28;19921;-48
2022/03/20 12:48:12;;;;;;;;;;;18.70;30.90;;;;;;8335549;28;19921;-49
2022/03/20 12:52:13;;;;;;;;;;;18.70;30.80;;;;;;8335881;28;19921;-48
2022/03/20 12:56:20;;;;;;;;;;;18.70;30.80;;;;;;8335281;28;20338;-48
2022/03/20 13:00:26;;;;;;;;;;;18.70;30.80;;;;;;8338676;28;19917;-47
2022/03/20 13:04:26;;;;;;;;;;;18.70;30.80;;;;;;8335133;28;19917;-51
2022/03/20 13:08:37;;;;;;;;;;;18.70;30.80;;;;;;8334166;28;20070;-47
2022/03/20 13:12:50;;;;;;;;;;;18.70;30.80;;;;;;8335234;28;19996;-52
2022/03/20 13:16:54;;;;;;;;;;;18.80;31.00;;;;;;8334621;28;19940;-51
2022/03/20 13:20:55;;;;;;;;;;;18.80;30.90;;;;;;8333715;28;20370;-50
2022/03/20 13:24:55;;;;;;;;;;;18.80;30.90;;;;;;8334986;28;19967;-52
2022/03/20 13:28:57;;;;;;;;;;;18.80;30.90;;;;;;8333813;28;19929;-49
2022/03/20 13:32:58;;;;;;;;;;;18.80;30.90;;;;;;8334297;28;19967;-50
2022/03/20 13:37:06;;;;;;;;;;;18.80;30.90;;;;;;8334541;28;20389;-51
2022/03/20 13:41:08;;;;;;;;;;;18.80;30.90;;;;;;8333571;28;19917;-48
2022/03/20 13:45:08;;;;;;;;;;;18.80;30.90;;;;;;8334473;28;19917;-49
2022/03/20 13:49:12;;;;;;;;;;;18.80;30.90;;;;;;8334058;28;20378;-46
2022/03/20 13:53:13;;;;;;;;;;;18.90;30.90;;;;;;8333471;28;19956;-48
2022/03/20 13:57:14;;;;;;;;;;;18.80;30.90;;;;;;8333876;28;19921;-48
2022/03/20 14:01:14;;;;;;;;;;;18.90;30.90;;;;;;8333544;28;19917;-47
2022/03/20 14:05:25;;;;;;;;;;;18.90;30.90;;;;;;8332946;28;19913;-51
2022/03/20 14:09:32;;;;;;;;;;;18.90;30.90;;;;;;8332508;28;19925;-50
2022/03/20 14:13:36;;;;;;;;;;;18.90;30.90;;;;;;8333485;28;19917;-47
2022/03/20 14:17:51;;;;;;;;;;;18.90;30.80;;;;;;8332575;28;20007;-47
2022/03/20 14:21:55;;;;;;;;;;;18.90;30.90;;;;;;8332812;28;20004;-48
2022/03/20 14:25:56;;;;;;;;;;;18.90;30.80;;;;;;8332741;28;20013;-48
2022/03/20 14:43:10;;;;;;;;;;;19.00;30.90;;;;;;8332774;28;20297;-50
2022/03/20 14:47:11;;;;;;;;;;;19.00;30.80;;;;;;8331502;28;19933;-48
2022/03/20 14:51:11;;;;;;;;;;;19.00;30.80;;;;;;8331908;28;20020;-47
2022/03/20 14:55:13;;;;;;;;;;;19.00;30.80;;;;;;8331946;28;19925;-47
2022/03/20 14:59:14;;;;;;;;;;;19.00;30.80;;;;;;8331186;28;19920;-47
2022/03/20 15:03:14;;;;;;;;;;;19.00;30.80;;;;;;8331685;28;19921;-48
2022/03/20 15:07:15;;;;;;;;;;;19.00;30.70;;;;;;8331023;28;19925;-48
2022/03/20 15:11:25;;;;;;;;;;;19.00;30.80;;;;;;8330541;28;19947;-47
2022/03/20 15:15:26;;;;;;;;;;;19.00;30.80;;;;;;8331426;28;19917;-47
2022/03/20 15:19:26;;;;;;;;;;;19.00;31.30;;;;;;8331264;28;19917;-52
2022/03/20 15:23:27;;;;;;;;;;;19.10;30.80;;;;;;8330853;28;20370;-52
2022/03/20 15:27:27;;;;;;;;;;;19.00;30.70;;;;;;8331081;28;20298;-47
2022/03/20 15:31:28;;;;;;;;;;;19.00;30.80;;;;;;8330720;28;20008;-46
2022/03/20 15:35:28;;;;;;;;;;;19.00;30.70;;;;;;8330336;28;19924;-47
2022/03/20 15:39:29;;;;;;;;;;;19.00;30.70;;;;;;8330847;28;20409;-48
2022/03/20 15:43:29;;;;;;;;;;;19.10;30.80;;;;;;8331122;28;19913;-48
2022/03/20 15:47:30;;;;;;;;;;;19.10;30.70;;;;;;8330048;28;19925;-47
2022/03/20 15:51:31;;;;;;;;;;;19.10;30.80;;;;;;8329892;28;19917;-47
2022/03/20 15:55:32;;;;;;;;;;;19.10;30.70;;;;;;8330672;28;20270;-48
2022/03/20 15:59:32;;;;;;;;;;;19.10;30.70;;;;;;8329871;28;20000;-47
2022/03/20 16:03:33;;;;;;;;;;;19.10;30.70;;;;;;8330369;28;19913;-49
2022/03/20 16:07:33;;;;;;;;;;;19.10;30.70;;;;;;8330411;28;19932;-47
2022/03/20 16:11:34;;;;;;;;;;;19.10;30.70;;;;;;8329440;28;19917;-46
2022/03/20 16:15:37;;;;;;;;;;;19.10;30.60;;;;;;8330136;28;19917;-47
2022/03/20 16:19:37;;;;;;;;;;;19.10;30.70;;;;;;8329894;28;19991;-49
2022/03/20 16:32:15;;;;;;;;;;;19.10;30.60;;;;;;8331361;28;19924;-46
2022/03/20 16:36:17;;;;;;;;;;;19.10;30.60;;;;;;8329654;28;19917;-49
2022/03/20 16:40:18;;;;;;;;;;;19.10;30.60;;;;;;8329799;28;20385;-50
2022/03/20 16:44:19;;;;;;;;;;;19.10;30.60;;;;;;8329367;28;20007;-46
2022/03/20 16:48:23;;;;;;;;;;;19.20;30.60;;;;;;8329444;28;20019;-51
2022/03/20 16:52:24;;;;;;;;;;;19.10;30.60;;;;;;8329403;28;19917;-49
2022/03/20 16:56:24;;;;;;;;;;;19.10;30.60;;;;;;8328968;28;19925;-47
2022/03/20 17:00:25;;;;;;;;;;;19.10;30.60;;;;;;8329572;28;19917;-48
2022/03/20 17:04:26;;;;;;;;;;;19.10;30.60;;;;;;8334459;28;19921;-47
2022/03/20 17:08:30;;;;;;;;;;;19.10;30.60;;;;;;8334109;28;20346;-50
2022/03/20 17:12:31;;;;;;;;;;;19.10;30.70;;;;;;8334862;28;19924;-46
2022/03/20 17:16:31;;;;;;;;;;;19.10;30.60;;;;;;8334909;28;20008;-48
2022/03/20 17:20:32;;;;;;;;;;;19.10;30.70;;;;;;8334328;28;19939;-46
2022/03/20 17:24:32;;;;;;;;;;;19.10;30.60;;;;;;8334817;28;20305;-45
2022/03/20 17:28:33;;;;;;;;;;;19.10;30.70;;;;;;8334388;28;19964;-46
2022/03/20 17:32:33;;;;;;;;;;;19.10;30.60;;;;;;8334014;28;20385;-49
2022/03/20 17:36:34;;;;;;;;;;;19.10;30.70;;;;;;8334533;28;19979;-46
2022/03/20 17:40:34;;;;;;;;;;;19.10;30.70;;;;;;8334138;28;19917;-47
2022/03/20 17:44:35;;;;;;;;;;;19.10;30.70;;;;;;8333799;28;19914;-51
2022/03/20 17:48:35;;;;;;;;;;;19.10;30.70;;;;;;8333774;28;20374;-48
2022/03/20 17:52:37;;;;;;;;;;;19.10;30.60;;;;;;8333882;28;19921;-47
2022/03/20 17:56:38;;;;;;;;;;;19.10;30.80;;;;;;8333401;28;19921;-48
2022/03/20 18:00:38;;;;;;;;;;;19.10;30.80;;;;;;8333797;28;20416;-50
2022/03/20 18:08:58;;;;;;;;;;;19.10;30.70;;;;;;8332863;28;20400;-51
2022/03/20 18:12:59;;;;;;;;;;;19.00;30.80;;;;;;8332749;28;19917;-48
2022/03/20 18:17:00;;;;;;;;;;;19.00;30.90;;;;;;8333191;28;20397;-49
2022/03/20 18:21:00;;;;;;;;;;;19.00;30.80;;;;;;8332301;28;19917;-47
2022/03/20 18:25:01;;;;;;;;;;;19.10;30.80;;;;;;8333259;28;19913;-47
2022/03/20 18:29:02;;;;;;;;;;;19.00;30.80;;;;;;8332638;28;20504;-47
2022/03/20 18:33:03;;;;;;;;;;;19.00;30.90;;;;;;8332155;28;19944;-49
2022/03/20 18:37:05;;;;;;;;;;;19.00;30.90;;;;;;8332812;28;20001;-48
2022/03/20 18:41:06;;;;;;;;;;;19.00;30.80;;;;;;8331974;28;19917;-50
2022/03/20 18:45:08;;;;;;;;;;;19.10;30.90;;;;;;8332314;28;19913;-46
2022/03/20 18:49:09;;;;;;;;;;;19.00;30.80;;;;;;8331986;28;19926;-47
2022/03/20 18:53:09;;;;;;;;;;;19.00;30.80;;;;;;8331658;28;19919;-48
2022/03/20 18:57:11;;;;;;;;;;;19.00;30.80;;;;;;8313988;28;19925;-47
2022/03/20 19:01:11;;;;;;;;;;;19.00;30.80;;;;;;8331688;28;19913;-46
2022/03/20 19:05:13;;;;;;;;;;;19.00;30.90;;;;;;8331394;28;19961;-47
2022/03/20 19:09:13;;;;;;;;;;;19.00;30.90;;;;;;8331260;28;19925;-47
2022/03/20 19:13:13;;;;;;;;;;;19.00;30.90;;;;;;8331434;28;19917;-46
2022/03/20 19:17:14;;;;;;;;;;;19.00;30.90;;;;;;8331204;28;19920;-48
2022/03/20 19:21:15;;;;;;;;;;;19.00;30.90;;;;;;8330983;28;20374;-47
2022/03/20 19:25:16;;;;;;;;;;;19.00;30.90;;;;;;8330771;28;20289;-47
2022/03/20 19:29:17;;;;;;;;;;;19.00;30.90;;;;;;8330421;28;19932;-47
2022/03/20 19:33:17;;;;;;;;;;;19.00;30.90;;;;;;8331036;28;19917;-48
2022/03/20 19:41:47;;;;;;;;;;;19.00;30.90;;;;;;8277137;28;19940;-47
2022/03/20 19:45:52;;;;;;;;;;;19.00;31.00;;;;;;8330923;28;19913;-47
2022/03/20 19:49:53;;;;;;;;;;;19.00;30.90;;;;;;8363696;28;19924;-46
2022/03/20 19:53:54;;;;;;;;;;;19.00;30.90;;;;;;8362701;28;19917;-48
2022/03/20 19:57:54;;;;;;;;;;;19.00;30.80;;;;;;8363585;28;19921;-46
2022/03/20 20:01:55;;;;;;;;;;;19.00;30.70;;;;;;8362996;28;20292;-46
2022/03/20 20:05:55;;;;;;;;;;;19.00;30.80;;;;;;8361608;28;20289;-45
2022/03/20 20:09:56;;;;;;;;;;;19.00;30.80;;;;;;8376309;28;20014;-46
2022/03/20 20:18:15;;;;;;;;;;;18.90;30.80;;;;;;8329611;28;19924;-46
2022/03/20 20:22:16;;;;;;;;;;;18.90;30.80;;;;;;8329795;28;19913;-45
2022/03/20 20:26:17;;;;;;;;;;;18.90;30.70;;;;;;8329327;28;19925;-47
2022/03/20 20:30:17;;;;;;;;;;;18.90;30.80;;;;;;8329926;28;19921;-46
2022/03/20 20:34:18;;;;;;;;;;;18.90;30.80;;;;;;8329906;28;19917;-46
2022/03/20 20:38:18;;;;;;;;;;;18.90;30.80;;;;;;8334303;28;19920;-46
2022/03/20 20:42:19;;;;;;;;;;;18.90;30.70;;;;;;8335952;28;19913;-47
2022/03/20 20:46:19;;;;;;;;;;;18.90;30.70;;;;;;8336036;28;19925;-47
2022/03/20 20:50:20;;;;;;;;;;;18.90;30.70;;;;;;8335517;28;19924;-47
2022/03/20 20:54:21;;;;;;;;;;;18.90;30.70;;;;;;8335525;28;19917;-46
2022/03/20 20:58:21;;;;;;;;;;;18.90;30.70;;;;;;8335756;28;19925;-50
2022/03/20 21:02:22;;;;;;;;;;;18.90;30.70;;;;;;8334979;28;19944;-47
2022/03/20 21:06:24;;;;;;;;;;;18.90;30.70;;;;;;8335668;28;19965;-46
2022/03/20 21:14:44;;;;;;;;;;;18.90;30.70;;;;;;8335495;28;19963;-50
2022/03/20 21:18:44;;;;;;;;;;;18.90;30.70;;;;;;8335231;28;20266;-51
2022/03/20 21:22:46;;;;;;;;;;;18.90;30.70;;;;;;8334775;28;19956;-48
2022/03/20 21:26:48;;;;;;;;;;;18.90;30.70;;;;;;8334237;28;19922;-47
2022/03/20 21:30:49;;;;;;;;;;;18.80;30.60;;;;;;8334951;28;19913;-51
2022/03/20 21:34:49;;;;;;;;;;;18.80;30.60;;;;;;8334649;28;19923;-47
2022/03/20 21:38:50;;;;;;;;;;;18.80;30.60;;;;;;8333983;28;19917;-47
2022/03/20 21:42:50;;;;;;;;;;;18.80;30.50;;;;;;8334467;28;19936;-45
2022/03/20 21:46:51;;;;;;;;;;;18.80;30.50;;;;;;8333930;28;19921;-47
2022/03/20 21:50:52;;;;;;;;;;;18.80;30.50;;;;;;8333553;28;19914;-46
2022/03/20 21:54:53;;;;;;;;;;;18.80;30.50;;;;;;8334041;28;19929;-50
2022/03/20 21:58:53;;;;;;;;;;;18.80;30.50;;;;;;8333757;28;20070;-51
2022/03/20 22:02:54;;;;;;;;;;;18.80;30.50;;;;;;8332907;28;19917;-50
2022/03/20 22:06:54;;;;;;;;;;;18.80;30.50;;;;;;8333221;28;19964;-47
2022/03/20 22:10:55;;;;;;;;;;;18.80;30.50;;;;;;8333466;28;19920;-50
2022/03/20 22:14:55;;;;;;;;;;;18.80;30.50;;;;;;8332666;28;19971;-48
2022/03/20 22:18:56;;;;;;;;;;;18.80;30.50;;;;;;8333035;28;20006;-51
2022/03/20 22:22:56;;;;;;;;;;;18.80;30.50;;;;;;8332995;28;19971;-50
2022/03/20 22:26:57;;;;;;;;;;;18.70;30.50;;;;;;8332214;28;19929;-49
2022/03/20 22:30:57;;;;;;;;;;;18.70;30.50;;;;;;8333144;28;19913;-50
2022/03/20 22:39:17;;;;;;;;;;;18.70;30.50;;;;;;8332107;28;20349;-49
2022/03/20 22:43:17;;;;;;;;;;;18.70;30.60;;;;;;8332210;28;19917;-48
2022/03/20 22:47:18;;;;;;;;;;;18.70;30.50;;;;;;8331452;28;20023;-50
2022/03/20 22:51:18;;;;;;;;;;;18.70;30.60;;;;;;8332457;28;20273;-48
2022/03/20 22:55:19;;;;;;;;;;;18.70;30.60;;;;;;8332024;28;19921;-48
2022/03/20 22:59:20;;;;;;;;;;;18.70;30.60;;;;;;8330263;28;19917;-46
2022/03/20 23:03:22;;;;;;;;;;;18.70;30.60;;;;;;8356792;28;19924;-47
2022/03/20 23:07:22;;;;;;;;;;;18.70;30.60;;;;;;8364518;28;20282;-48
2022/03/20 23:11:25;;;;;;;;;;;18.70;30.60;;;;;;8364036;28;22216;-47
2022/03/20 23:15:26;;;;;;;;;;;18.70;30.60;;;;;;8364171;28;19920;-48
2022/03/20 23:19:30;;;;;;;;;;;18.60;30.60;;;;;;8364347;28;19935;-47
2022/03/20 23:23:30;;;;;;;;;;;18.60;30.60;;;;;;8363528;28;19916;-46
2022/03/20 23:27:30;;;;;;;;;;;18.60;30.60;;;;;;8363784;28;19967;-45
2022/03/20 23:31:34;;;;;;;;;;;18.60;30.60;;;;;;8364119;28;19920;-46
2022/03/20 23:35:40;;;;;;;;;;;18.60;30.60;;;;;;8363187;28;20393;-45
2022/03/20 23:39:41;;;;;;;;;;;18.60;30.60;;;;;;8363518;28;19920;-48
2022/03/20 23:43:42;;;;;;;;;;;18.60;30.60;;;;;;8363406;28;19917;-45
2022/03/20 23:47:43;;;;;;;;;;;18.60;30.60;;;;;;8362836;28;20028;-48
2022/03/20 23:51:43;;;;;;;;;;;18.60;30.60;;;;;;8363859;28;20404;-45
2022/03/20 23:55:44;;;;;;;;;;;18.50;30.60;;;;;;8363634;28;19921;-49
2022/03/20 23:59:44;;;;;;;;;;;18.50;30.60;;;;;;8362719;28;19956;-46
